Picher, Oklahoma
Current Conditions -  °F | °C
As of 8:53 AM on Friday 19 Dec 2014 (Local Time) from KJLN Reporting Station
Moderate Fog Moderate Fog  
Wind Chill: 31°   Ceiling: 200
Heat Index: 36°   Visibility: 0.5mi
Dew Point: 36°   Wind: 6mph
Humidity: 100%   Direction: 360°N
Pressure: 30.25"   Gusts: NA
Location:  36.99°N, 94.83°W
Report Text: KJLN 191453Z 36005KT 1/2SM FG OVC002 02/02 A3025 RMK AO2 SLP250 T00220022 50007
Loading
Personal Weather Stations






























Interactive Weather Map New forecast layout! Learn more

10-Day Weather Forecast

Advertisements
Track Severe Weather on mobile